sensor_id;sensor_type;location;lat;lon;timestamp;P1;durP1;ratioP1;P2;durP2;ratioP2
42110;SDS011;27766;52.174;5.456;2023-07-08T00:02:15;2.80;;;2.25;;
42110;SDS011;27766;52.174;5.456;2023-07-08T00:04:43;3.88;;;2.13;;
42110;SDS011;27766;52.174;5.456;2023-07-08T00:07:10;3.60;;;2.53;;
42110;SDS011;27766;52.174;5.456;2023-07-08T00:09:39;4.00;;;2.42;;
42110;SDS011;27766;52.174;5.456;2023-07-08T00:12:10;3.50;;;2.45;;
42110;SDS011;27766;52.174;5.456;2023-07-08T00:14:38;4.53;;;2.40;;
42110;SDS011;27766;52.174;5.456;2023-07-08T00:17:10;3.80;;;2.47;;
42110;SDS011;27766;52.174;5.456;2023-07-08T00:19:39;3.47;;;2.53;;
42110;SDS011;27766;52.174;5.456;2023-07-08T00:22:11;3.88;;;2.20;;
42110;SDS011;27766;52.174;5.456;2023-07-08T00:27:10;4.45;;;2.53;;
42110;SDS011;27766;52.174;5.456;2023-07-08T00:29:39;2.90;;;1.92;;
42110;SDS011;27766;52.174;5.456;2023-07-08T00:32:13;3.72;;;2.80;;
42110;SDS011;27766;52.174;5.456;2023-07-08T00:34:42;6.53;;;2.53;;
42110;SDS011;27766;52.174;5.456;2023-07-08T00:37:12;2.53;;;2.03;;
42110;SDS011;27766;52.174;5.456;2023-07-08T00:39:40;3.35;;;2.33;;
42110;SDS011;27766;52.174;5.456;2023-07-08T00:42:17;2.40;;;1.88;;
42110;SDS011;27766;52.174;5.456;2023-07-08T00:44:48;11.50;;;2.80;;
42110;SDS011;27766;52.174;5.456;2023-07-08T00:47:15;5.13;;;2.47;;
42110;SDS011;27766;52.174;5.456;2023-07-08T00:49:51;2.63;;;2.00;;
42110;SDS011;27766;52.174;5.456;2023-07-08T00:54:59;3.88;;;2.85;;
42110;SDS011;27766;52.174;5.456;2023-07-08T00:57:32;7.25;;;2.70;;
42110;SDS011;27766;52.174;5.456;2023-07-08T01:00:06;4.13;;;2.65;;
42110;SDS011;27766;52.174;5.456;2023-07-08T01:02:40;3.38;;;2.80;;
42110;SDS011;27766;52.174;5.456;2023-07-08T01:05:19;3.65;;;2.95;;
42110;SDS011;27766;52.174;5.456;2023-07-08T01:07:51;4.70;;;2.88;;
42110;SDS011;27766;52.174;5.456;2023-07-08T01:10:26;4.82;;;2.65;;
42110;SDS011;27766;52.174;5.456;2023-07-08T01:12:59;3.22;;;2.33;;
42110;SDS011;27766;52.174;5.456;2023-07-08T01:15:36;3.30;;;2.95;;
42110;SDS011;27766;52.174;5.456;2023-07-08T01:20:36;3.25;;;2.50;;
42110;SDS011;27766;52.174;5.456;2023-07-08T01:23:04;3.72;;;2.88;;
42110;SDS011;27766;52.174;5.456;2023-07-08T01:25:31;3.47;;;2.50;;
42110;SDS011;27766;52.174;5.456;2023-07-08T01:28:00;8.25;;;2.50;;
42110;SDS011;27766;52.174;5.456;2023-07-08T01:30:29;2.88;;;2.58;;
42110;SDS011;27766;52.174;5.456;2023-07-08T01:32:58;4.93;;;3.10;;
42110;SDS011;27766;52.174;5.456;2023-07-08T01:35:30;4.35;;;2.80;;
42110;SDS011;27766;52.174;5.456;2023-07-08T01:37:59;11.07;;;2.95;;
42110;SDS011;27766;52.174;5.456;2023-07-08T01:40:32;7.43;;;2.55;;
42110;SDS011;27766;52.174;5.456;2023-07-08T01:43:02;4.22;;;2.47;;
42110;SDS011;27766;52.174;5.456;2023-07-08T01:45:33;4.25;;;2.60;;
42110;SDS011;27766;52.174;5.456;2023-07-08T01:48:08;3.38;;;2.35;;
42110;SDS011;27766;52.174;5.456;2023-07-08T01:50:49;3.55;;;2.63;;
42110;SDS011;27766;52.174;5.456;2023-07-08T01:53:28;8.10;;;2.92;;
42110;SDS011;27766;52.174;5.456;2023-07-08T01:55:58;4.47;;;2.83;;
42110;SDS011;27766;52.174;5.456;2023-07-08T01:58:25;4.22;;;3.08;;
42110;SDS011;27766;52.174;5.456;2023-07-08T02:00:53;5.85;;;2.75;;
42110;SDS011;27766;52.174;5.456;2023-07-08T02:03:21;2.92;;;2.42;;
42110;SDS011;27766;52.174;5.456;2023-07-08T02:05:49;4.68;;;3.35;;
42110;SDS011;27766;52.174;5.456;2023-07-08T02:08:17;4.38;;;2.88;;
42110;SDS011;27766;52.174;5.456;2023-07-08T02:10:49;3.28;;;2.28;;
42110;SDS011;27766;52.174;5.456;2023-07-08T02:13:19;2.72;;;2.30;;
42110;SDS011;27766;52.174;5.456;2023-07-08T02:15:46;4.32;;;2.92;;
42110;SDS011;27766;52.174;5.456;2023-07-08T02:18:14;4.68;;;3.30;;
42110;SDS011;27766;52.174;5.456;2023-07-08T02:20:44;5.05;;;2.95;;
42110;SDS011;27766;52.174;5.456;2023-07-08T02:23:13;5.30;;;2.80;;
42110;SDS011;27766;52.174;5.456;2023-07-08T02:25:53;5.65;;;2.47;;
42110;SDS011;27766;52.174;5.456;2023-07-08T02:28:21;3.55;;;2.85;;
42110;SDS011;27766;52.174;5.456;2023-07-08T02:30:49;3.78;;;3.30;;
42110;SDS011;27766;52.174;5.456;2023-07-08T02:33:16;4.47;;;3.05;;
42110;SDS011;27766;52.174;5.456;2023-07-08T02:35:44;4.65;;;3.17;;
42110;SDS011;27766;52.174;5.456;2023-07-08T02:38:12;6.97;;;2.80;;
42110;SDS011;27766;52.174;5.456;2023-07-08T02:40:40;3.42;;;2.72;;
42110;SDS011;27766;52.174;5.456;2023-07-08T02:43:08;8.75;;;3.03;;
42110;SDS011;27766;52.174;5.456;2023-07-08T02:45:36;7.32;;;3.00;;
42110;SDS011;27766;52.174;5.456;2023-07-08T02:48:03;3.35;;;2.63;;
42110;SDS011;27766;52.174;5.456;2023-07-08T02:50:31;3.03;;;2.45;;
42110;SDS011;27766;52.174;5.456;2023-07-08T02:52:58;6.60;;;2.53;;
42110;SDS011;27766;52.174;5.456;2023-07-08T02:55:25;4.05;;;2.60;;
42110;SDS011;27766;52.174;5.456;2023-07-08T02:57:52;6.00;;;3.10;;
42110;SDS011;27766;52.174;5.456;2023-07-08T03:00:20;4.18;;;2.95;;
42110;SDS011;27766;52.174;5.456;2023-07-08T03:02:47;10.13;;;3.17;;
42110;SDS011;27766;52.174;5.456;2023-07-08T03:05:14;3.08;;;2.53;;
42110;SDS011;27766;52.174;5.456;2023-07-08T03:07:42;3.45;;;2.70;;
42110;SDS011;27766;52.174;5.456;2023-07-08T03:10:09;6.40;;;2.95;;
42110;SDS011;27766;52.174;5.456;2023-07-08T03:12:36;5.80;;;3.13;;
42110;SDS011;27766;52.174;5.456;2023-07-08T03:15:04;5.70;;;2.88;;
42110;SDS011;27766;52.174;5.456;2023-07-08T03:17:32;5.00;;;3.20;;
42110;SDS011;27766;52.174;5.456;2023-07-08T03:19:59;6.65;;;3.13;;
42110;SDS011;27766;52.174;5.456;2023-07-08T03:22:27;3.97;;;2.90;;
42110;SDS011;27766;52.174;5.456;2023-07-08T03:24:54;4.10;;;3.13;;
42110;SDS011;27766;52.174;5.456;2023-07-08T03:27:22;4.43;;;2.65;;
42110;SDS011;27766;52.174;5.456;2023-07-08T03:29:50;5.60;;;2.90;;
42110;SDS011;27766;52.174;5.456;2023-07-08T03:32:17;4.68;;;2.95;;
42110;SDS011;27766;52.174;5.456;2023-07-08T03:34:44;4.55;;;2.97;;
42110;SDS011;27766;52.174;5.456;2023-07-08T03:37:12;4.80;;;2.85;;
42110;SDS011;27766;52.174;5.456;2023-07-08T03:39:39;3.63;;;2.60;;
42110;SDS011;27766;52.174;5.456;2023-07-08T03:42:06;4.18;;;3.00;;
42110;SDS011;27766;52.174;5.456;2023-07-08T03:44:34;3.75;;;2.83;;
42110;SDS011;27766;52.174;5.456;2023-07-08T03:47:01;5.18;;;2.67;;
42110;SDS011;27766;52.174;5.456;2023-07-08T03:49:29;5.43;;;3.28;;
42110;SDS011;27766;52.174;5.456;2023-07-08T03:51:56;4.20;;;3.45;;
42110;SDS011;27766;52.174;5.456;2023-07-08T03:54:24;3.78;;;2.88;;
42110;SDS011;27766;52.174;5.456;2023-07-08T03:56:52;3.83;;;2.72;;
42110;SDS011;27766;52.174;5.456;2023-07-08T03:59:19;6.05;;;2.92;;
42110;SDS011;27766;52.174;5.456;2023-07-08T04:01:47;4.78;;;3.53;;
42110;SDS011;27766;52.174;5.456;2023-07-08T04:04:16;5.53;;;3.15;;
42110;SDS011;27766;52.174;5.456;2023-07-08T04:06:44;4.72;;;3.00;;
42110;SDS011;27766;52.174;5.456;2023-07-08T04:09:12;4.10;;;2.97;;
42110;SDS011;27766;52.174;5.456;2023-07-08T04:11:40;7.07;;;3.08;;
42110;SDS011;27766;52.174;5.456;2023-07-08T04:14:08;4.32;;;2.88;;
42110;SDS011;27766;52.174;5.456;2023-07-08T04:19:18;5.72;;;2.83;;
42110;SDS011;27766;52.174;5.456;2023-07-08T04:21:46;8.82;;;3.58;;
42110;SDS011;27766;52.174;5.456;2023-07-08T04:24:14;5.38;;;2.75;;
42110;SDS011;27766;52.174;5.456;2023-07-08T04:26:44;4.88;;;3.30;;
42110;SDS011;27766;52.174;5.456;2023-07-08T04:29:17;4.15;;;2.80;;
42110;SDS011;27766;52.174;5.456;2023-07-08T04:31:46;4.50;;;3.20;;
42110;SDS011;27766;52.174;5.456;2023-07-08T04:34:14;4.20;;;3.22;;
42110;SDS011;27766;52.174;5.456;2023-07-08T04:36:43;4.30;;;3.17;;
42110;SDS011;27766;52.174;5.456;2023-07-08T04:39:11;4.53;;;2.90;;
42110;SDS011;27766;52.174;5.456;2023-07-08T04:41:40;3.33;;;3.03;;
42110;SDS011;27766;52.174;5.456;2023-07-08T04:44:08;5.13;;;2.92;;
42110;SDS011;27766;52.174;5.456;2023-07-08T04:46:43;3.90;;;3.28;;
42110;SDS011;27766;52.174;5.456;2023-07-08T04:49:14;7.35;;;3.95;;
42110;SDS011;27766;52.174;5.456;2023-07-08T04:51:41;4.75;;;3.33;;
42110;SDS011;27766;52.174;5.456;2023-07-08T04:54:09;4.88;;;3.10;;
42110;SDS011;27766;52.174;5.456;2023-07-08T04:56:44;3.65;;;2.90;;
42110;SDS011;27766;52.174;5.456;2023-07-08T04:59:14;3.67;;;2.90;;
42110;SDS011;27766;52.174;5.456;2023-07-08T05:01:44;3.97;;;3.05;;
42110;SDS011;27766;52.174;5.456;2023-07-08T05:04:16;3.50;;;3.00;;
42110;SDS011;27766;52.174;5.456;2023-07-08T05:06:44;4.43;;;3.13;;
42110;SDS011;27766;52.174;5.456;2023-07-08T05:09:13;3.40;;;2.70;;
42110;SDS011;27766;52.174;5.456;2023-07-08T05:11:43;11.52;;;3.63;;
42110;SDS011;27766;52.174;5.456;2023-07-08T05:14:12;3.65;;;2.65;;
42110;SDS011;27766;52.174;5.456;2023-07-08T05:16:40;4.03;;;2.80;;
42110;SDS011;27766;52.174;5.456;2023-07-08T05:19:08;3.42;;;2.80;;
42110;SDS011;27766;52.174;5.456;2023-07-08T05:21:35;3.70;;;3.03;;
42110;SDS011;27766;52.174;5.456;2023-07-08T05:24:03;4.18;;;2.88;;
42110;SDS011;27766;52.174;5.456;2023-07-08T05:26:31;4.47;;;3.42;;
42110;SDS011;27766;52.174;5.456;2023-07-08T05:29:00;5.40;;;2.83;;
42110;SDS011;27766;52.174;5.456;2023-07-08T05:31:27;3.85;;;3.10;;
42110;SDS011;27766;52.174;5.456;2023-07-08T05:34:11;5.60;;;3.22;;
42110;SDS011;27766;52.174;5.456;2023-07-08T05:36:39;5.35;;;2.97;;
42110;SDS011;27766;52.174;5.456;2023-07-08T05:39:06;5.53;;;3.28;;
42110;SDS011;27766;52.174;5.456;2023-07-08T05:41:33;7.10;;;3.10;;
42110;SDS011;27766;52.174;5.456;2023-07-08T05:44:01;4.93;;;2.90;;
42110;SDS011;27766;52.174;5.456;2023-07-08T05:46:28;4.05;;;3.28;;
42110;SDS011;27766;52.174;5.456;2023-07-08T05:48:56;9.65;;;2.83;;
42110;SDS011;27766;52.174;5.456;2023-07-08T05:51:26;5.40;;;3.05;;
42110;SDS011;27766;52.174;5.456;2023-07-08T05:53:53;5.53;;;3.35;;
42110;SDS011;27766;52.174;5.456;2023-07-08T05:56:21;4.40;;;3.10;;
42110;SDS011;27766;52.174;5.456;2023-07-08T05:58:48;4.80;;;2.75;;
42110;SDS011;27766;52.174;5.456;2023-07-08T06:01:15;4.90;;;2.97;;
42110;SDS011;27766;52.174;5.456;2023-07-08T06:03:43;3.70;;;3.03;;
42110;SDS011;27766;52.174;5.456;2023-07-08T06:06:10;3.03;;;2.50;;
42110;SDS011;27766;52.174;5.456;2023-07-08T06:08:37;3.58;;;2.42;;
42110;SDS011;27766;52.174;5.456;2023-07-08T06:11:05;8.00;;;3.05;;
42110;SDS011;27766;52.174;5.456;2023-07-08T06:13:32;5.75;;;2.90;;
42110;SDS011;27766;52.174;5.456;2023-07-08T06:16:00;3.78;;;2.63;;
42110;SDS011;27766;52.174;5.456;2023-07-08T06:18:31;3.97;;;2.83;;
42110;SDS011;27766;52.174;5.456;2023-07-08T06:20:58;3.25;;;2.45;;
42110;SDS011;27766;52.174;5.456;2023-07-08T06:23:27;7.78;;;3.28;;
42110;SDS011;27766;52.174;5.456;2023-07-08T06:25:55;2.80;;;2.50;;
42110;SDS011;27766;52.174;5.456;2023-07-08T06:28:22;3.55;;;2.53;;
42110;SDS011;27766;52.174;5.456;2023-07-08T06:30:50;3.60;;;2.70;;
42110;SDS011;27766;52.174;5.456;2023-07-08T06:33:17;3.30;;;2.53;;
42110;SDS011;27766;52.174;5.456;2023-07-08T06:35:45;3.95;;;2.88;;
42110;SDS011;27766;52.174;5.456;2023-07-08T06:38:12;4.00;;;2.67;;
42110;SDS011;27766;52.174;5.456;2023-07-08T06:40:40;6.75;;;2.72;;
42110;SDS011;27766;52.174;5.456;2023-07-08T06:43:07;3.05;;;2.50;;
42110;SDS011;27766;52.174;5.456;2023-07-08T06:45:34;3.67;;;2.50;;
42110;SDS011;27766;52.174;5.456;2023-07-08T06:48:02;3.92;;;2.75;;
42110;SDS011;27766;52.174;5.456;2023-07-08T06:50:30;4.72;;;2.65;;
42110;SDS011;27766;52.174;5.456;2023-07-08T06:52:57;4.28;;;2.72;;
42110;SDS011;27766;52.174;5.456;2023-07-08T06:55:24;5.05;;;2.55;;
42110;SDS011;27766;52.174;5.456;2023-07-08T06:57:52;2.97;;;2.60;;
42110;SDS011;27766;52.174;5.456;2023-07-08T07:00:19;6.55;;;3.33;;
42110;SDS011;27766;52.174;5.456;2023-07-08T07:02:46;3.22;;;2.47;;
42110;SDS011;27766;52.174;5.456;2023-07-08T07:05:14;2.80;;;2.30;;
42110;SDS011;27766;52.174;5.456;2023-07-08T07:07:41;6.20;;;2.80;;
42110;SDS011;27766;52.174;5.456;2023-07-08T07:10:09;2.65;;;2.30;;
42110;SDS011;27766;52.174;5.456;2023-07-08T07:12:36;5.47;;;2.63;;
42110;SDS011;27766;52.174;5.456;2023-07-08T07:15:04;3.63;;;2.70;;
42110;SDS011;27766;52.174;5.456;2023-07-08T07:17:32;3.58;;;2.63;;
42110;SDS011;27766;52.174;5.456;2023-07-08T07:20:02;5.10;;;2.95;;
42110;SDS011;27766;52.174;5.456;2023-07-08T07:22:30;5.75;;;3.13;;
42110;SDS011;27766;52.174;5.456;2023-07-08T07:25:00;4.57;;;3.00;;
42110;SDS011;27766;52.174;5.456;2023-07-08T07:27:28;3.78;;;2.47;;
42110;SDS011;27766;52.174;5.456;2023-07-08T07:29:56;4.35;;;2.85;;
42110;SDS011;27766;52.174;5.456;2023-07-08T07:32:26;3.25;;;2.33;;
42110;SDS011;27766;52.174;5.456;2023-07-08T07:34:53;4.68;;;3.05;;
42110;SDS011;27766;52.174;5.456;2023-07-08T07:37:21;3.22;;;2.60;;
42110;SDS011;27766;52.174;5.456;2023-07-08T07:39:49;4.32;;;2.30;;
42110;SDS011;27766;52.174;5.456;2023-07-08T07:42:19;3.75;;;2.45;;
42110;SDS011;27766;52.174;5.456;2023-07-08T07:44:46;3.80;;;3.00;;
42110;SDS011;27766;52.174;5.456;2023-07-08T07:47:14;4.25;;;2.58;;
42110;SDS011;27766;52.174;5.456;2023-07-08T07:49:41;3.90;;;2.95;;
42110;SDS011;27766;52.174;5.456;2023-07-08T07:52:08;4.13;;;2.67;;
42110;SDS011;27766;52.174;5.456;2023-07-08T07:54:38;3.80;;;2.92;;
42110;SDS011;27766;52.174;5.456;2023-07-08T07:57:06;3.80;;;2.60;;
42110;SDS011;27766;52.174;5.456;2023-07-08T07:59:33;8.10;;;3.00;;
42110;SDS011;27766;52.174;5.456;2023-07-08T08:02:01;4.70;;;3.25;;
42110;SDS011;27766;52.174;5.456;2023-07-08T08:04:28;3.17;;;2.60;;
42110;SDS011;27766;52.174;5.456;2023-07-08T08:06:56;7.28;;;3.03;;
42110;SDS011;27766;52.174;5.456;2023-07-08T08:09:23;4.53;;;2.65;;
42110;SDS011;27766;52.174;5.456;2023-07-08T08:11:50;3.88;;;2.75;;
42110;SDS011;27766;52.174;5.456;2023-07-08T08:14:18;2.88;;;2.47;;
42110;SDS011;27766;52.174;5.456;2023-07-08T08:16:46;6.93;;;2.65;;
42110;SDS011;27766;52.174;5.456;2023-07-08T08:19:13;5.75;;;3.00;;
42110;SDS011;27766;52.174;5.456;2023-07-08T08:21:40;4.90;;;3.30;;
42110;SDS011;27766;52.174;5.456;2023-07-08T08:24:08;6.40;;;3.28;;
42110;SDS011;27766;52.174;5.456;2023-07-08T08:26:35;4.40;;;2.88;;
42110;SDS011;27766;52.174;5.456;2023-07-08T08:29:02;4.60;;;2.90;;
42110;SDS011;27766;52.174;5.456;2023-07-08T08:31:30;5.18;;;3.70;;
42110;SDS011;27766;52.174;5.456;2023-07-08T08:33:58;7.03;;;2.80;;
42110;SDS011;27766;52.174;5.456;2023-07-08T08:36:26;4.53;;;2.88;;
42110;SDS011;27766;52.174;5.456;2023-07-08T08:38:53;4.05;;;2.80;;
42110;SDS011;27766;52.174;5.456;2023-07-08T08:41:25;4.30;;;3.20;;
42110;SDS011;27766;52.174;5.456;2023-07-08T08:43:58;4.05;;;3.20;;
42110;SDS011;27766;52.174;5.456;2023-07-08T08:49:18;4.38;;;3.00;;
42110;SDS011;27766;52.174;5.456;2023-07-08T08:51:48;4.82;;;2.90;;
42110;SDS011;27766;52.174;5.456;2023-07-08T08:54:16;4.43;;;3.17;;
42110;SDS011;27766;52.174;5.456;2023-07-08T08:57:00;9.73;;;3.03;;
42110;SDS011;27766;52.174;5.456;2023-07-08T08:59:58;3.78;;;2.47;;
42110;SDS011;27766;52.174;5.456;2023-07-08T09:05:13;3.45;;;2.85;;
42110;SDS011;27766;52.174;5.456;2023-07-08T09:07:55;6.60;;;3.47;;
42110;SDS011;27766;52.174;5.456;2023-07-08T09:12:56;7.30;;;3.72;;
42110;SDS011;27766;52.174;5.456;2023-07-08T09:15:27;3.75;;;2.92;;
42110;SDS011;27766;52.174;5.456;2023-07-08T09:17:54;3.63;;;2.78;;
42110;SDS011;27766;52.174;5.456;2023-07-08T09:20:27;5.20;;;3.55;;
42110;SDS011;27766;52.174;5.456;2023-07-08T09:23:17;6.47;;;3.50;;
42110;SDS011;27766;52.174;5.456;2023-07-08T09:25:54;4.40;;;3.55;;
42110;SDS011;27766;52.174;5.456;2023-07-08T09:28:39;3.15;;;2.55;;
42110;SDS011;27766;52.174;5.456;2023-07-08T09:31:22;5.68;;;4.18;;
42110;SDS011;27766;52.174;5.456;2023-07-08T09:34:07;4.57;;;3.55;;
42110;SDS011;27766;52.174;5.456;2023-07-08T09:37:01;5.57;;;3.60;;
42110;SDS011;27766;52.174;5.456;2023-07-08T09:39:30;5.90;;;3.33;;
42110;SDS011;27766;52.174;5.456;2023-07-08T09:41:57;4.60;;;3.90;;
42110;SDS011;27766;52.174;5.456;2023-07-08T09:44:34;5.97;;;3.80;;
42110;SDS011;27766;52.174;5.456;2023-07-08T09:47:01;5.95;;;3.42;;
42110;SDS011;27766;52.174;5.456;2023-07-08T09:49:32;6.93;;;3.80;;
42110;SDS011;27766;52.174;5.456;2023-07-08T09:52:02;4.00;;;3.25;;
42110;SDS011;27766;52.174;5.456;2023-07-08T09:54:31;10.13;;;4.20;;
42110;SDS011;27766;52.174;5.456;2023-07-08T09:57:01;7.63;;;3.90;;
42110;SDS011;27766;52.174;5.456;2023-07-08T09:59:32;7.68;;;4.00;;
42110;SDS011;27766;52.174;5.456;2023-07-08T10:02:25;6.53;;;4.00;;
42110;SDS011;27766;52.174;5.456;2023-07-08T10:04:56;4.03;;;3.38;;
42110;SDS011;27766;52.174;5.456;2023-07-08T10:07:27;9.73;;;4.13;;
42110;SDS011;27766;52.174;5.456;2023-07-08T10:09:59;6.55;;;4.25;;
42110;SDS011;27766;52.174;5.456;2023-07-08T10:12:30;5.97;;;4.00;;
42110;SDS011;27766;52.174;5.456;2023-07-08T10:15:00;4.70;;;3.90;;
42110;SDS011;27766;52.174;5.456;2023-07-08T10:17:33;9.38;;;4.22;;
42110;SDS011;27766;52.174;5.456;2023-07-08T10:20:05;5.55;;;4.28;;
42110;SDS011;27766;52.174;5.456;2023-07-08T10:25:40;7.00;;;4.18;;
42110;SDS011;27766;52.174;5.456;2023-07-08T10:39:28;6.35;;;4.47;;
42110;SDS011;27766;52.174;5.456;2023-07-08T10:50:29;7.63;;;4.68;;
42110;SDS011;27766;52.174;5.456;2023-07-08T10:54:38;6.22;;;4.90;;
42110;SDS011;27766;52.174;5.456;2023-07-08T10:56:41;6.65;;;4.38;;
42110;SDS011;27766;52.174;5.456;2023-07-08T10:59:18;6.43;;;4.50;;
42110;SDS011;27766;52.174;5.456;2023-07-08T11:09:27;6.75;;;4.57;;
42110;SDS011;27766;52.174;5.456;2023-07-08T11:12:01;9.57;;;4.32;;
42110;SDS011;27766;52.174;5.456;2023-07-08T11:15:13;5.60;;;4.35;;
42110;SDS011;27766;52.174;5.456;2023-07-08T11:17:49;7.90;;;4.47;;
42110;SDS011;27766;52.174;5.456;2023-07-08T11:20:24;5.93;;;4.35;;
42110;SDS011;27766;52.174;5.456;2023-07-08T11:23:18;9.18;;;4.78;;
42110;SDS011;27766;52.174;5.456;2023-07-08T11:25:53;6.07;;;4.65;;
42110;SDS011;27766;52.174;5.456;2023-07-08T11:28:28;5.45;;;4.03;;
42110;SDS011;27766;52.174;5.456;2023-07-08T11:30:55;8.38;;;4.45;;
42110;SDS011;27766;52.174;5.456;2023-07-08T11:33:28;6.03;;;4.72;;
42110;SDS011;27766;52.174;5.456;2023-07-08T11:35:59;7.10;;;5.05;;
42110;SDS011;27766;52.174;5.456;2023-07-08T11:38:29;7.40;;;4.47;;
42110;SDS011;27766;52.174;5.456;2023-07-08T11:41:02;10.02;;;4.90;;
42110;SDS011;27766;52.174;5.456;2023-07-08T11:43:48;6.93;;;5.00;;
42110;SDS011;27766;52.174;5.456;2023-07-08T11:46:19;6.85;;;5.20;;
42110;SDS011;27766;52.174;5.456;2023-07-08T11:48:49;7.88;;;5.22;;
42110;SDS011;27766;52.174;5.456;2023-07-08T11:51:26;6.95;;;5.35;;
42110;SDS011;27766;52.174;5.456;2023-07-08T11:56:46;14.50;;;5.50;;
42110;SDS011;27766;52.174;5.456;2023-07-08T11:59:25;7.68;;;4.90;;
42110;SDS011;27766;52.174;5.456;2023-07-08T12:02:15;7.45;;;5.05;;
42110;SDS011;27766;52.174;5.456;2023-07-08T12:12:54;8.13;;;5.00;;
42110;SDS011;27766;52.174;5.456;2023-07-08T12:15:25;8.15;;;5.47;;
42110;SDS011;27766;52.174;5.456;2023-07-08T12:17:56;7.40;;;5.50;;
42110;SDS011;27766;52.174;5.456;2023-07-08T12:21:06;5.72;;;4.88;;
42110;SDS011;27766;52.174;5.456;2023-07-08T12:23:31;6.80;;;5.20;;
42110;SDS011;27766;52.174;5.456;2023-07-08T12:25:59;6.47;;;5.25;;
42110;SDS011;27766;52.174;5.456;2023-07-08T12:28:27;7.18;;;5.57;;
42110;SDS011;27766;52.174;5.456;2023-07-08T12:30:54;11.50;;;5.95;;
42110;SDS011;27766;52.174;5.456;2023-07-08T12:35:54;6.50;;;4.97;;
42110;SDS011;27766;52.174;5.456;2023-07-08T12:38:41;6.25;;;5.00;;
42110;SDS011;27766;52.174;5.456;2023-07-08T12:41:22;5.75;;;4.88;;
42110;SDS011;27766;52.174;5.456;2023-07-08T12:44:01;10.45;;;5.53;;
42110;SDS011;27766;52.174;5.456;2023-07-08T12:46:29;11.32;;;5.40;;
42110;SDS011;27766;52.174;5.456;2023-07-08T12:48:56;8.52;;;5.18;;
42110;SDS011;27766;52.174;5.456;2023-07-08T12:51:25;6.00;;;4.97;;
42110;SDS011;27766;52.174;5.456;2023-07-08T12:53:53;8.43;;;5.03;;
42110;SDS011;27766;52.174;5.456;2023-07-08T12:56:21;6.05;;;5.00;;
42110;SDS011;27766;52.174;5.456;2023-07-08T12:58:51;7.20;;;5.05;;
42110;SDS011;27766;52.174;5.456;2023-07-08T13:01:25;6.97;;;4.57;;
42110;SDS011;27766;52.174;5.456;2023-07-08T13:04:01;6.80;;;4.95;;
42110;SDS011;27766;52.174;5.456;2023-07-08T13:06:32;6.85;;;5.15;;
42110;SDS011;27766;52.174;5.456;2023-07-08T13:11:52;8.02;;;5.20;;
42110;SDS011;27766;52.174;5.456;2023-07-08T13:14:23;5.72;;;4.63;;
42110;SDS011;27766;52.174;5.456;2023-07-08T13:16:52;5.93;;;4.53;;
42110;SDS011;27766;52.174;5.456;2023-07-08T13:19:20;6.75;;;5.28;;
42110;SDS011;27766;52.174;5.456;2023-07-08T13:21:49;6.47;;;4.85;;
42110;SDS011;27766;52.174;5.456;2023-07-08T13:24:17;5.97;;;4.80;;
42110;SDS011;27766;52.174;5.456;2023-07-08T13:26:46;6.20;;;4.40;;
42110;SDS011;27766;52.174;5.456;2023-07-08T13:29:16;8.95;;;4.43;;
42110;SDS011;27766;52.174;5.456;2023-07-08T13:31:52;7.20;;;4.55;;
42110;SDS011;27766;52.174;5.456;2023-07-08T13:34:29;5.53;;;4.47;;
42110;SDS011;27766;52.174;5.456;2023-07-08T13:36:59;4.55;;;4.00;;
42110;SDS011;27766;52.174;5.456;2023-07-08T13:39:29;5.95;;;4.53;;
42110;SDS011;27766;52.174;5.456;2023-07-08T13:42:01;7.28;;;4.22;;
42110;SDS011;27766;52.174;5.456;2023-07-08T13:44:29;7.97;;;4.85;;
42110;SDS011;27766;52.174;5.456;2023-07-08T13:46:58;8.38;;;4.70;;
42110;SDS011;27766;52.174;5.456;2023-07-08T13:49:29;8.98;;;4.05;;
42110;SDS011;27766;52.174;5.456;2023-07-08T13:54:50;5.80;;;4.68;;
42110;SDS011;27766;52.174;5.456;2023-07-08T13:57:28;5.53;;;4.80;;
42110;SDS011;27766;52.174;5.456;2023-07-08T13:59:58;7.90;;;4.13;;
42110;SDS011;27766;52.174;5.456;2023-07-08T14:02:27;7.07;;;4.45;;
42110;SDS011;27766;52.174;5.456;2023-07-08T14:04:58;5.15;;;4.40;;
42110;SDS011;27766;52.174;5.456;2023-07-08T14:07:28;5.82;;;4.53;;
42110;SDS011;27766;52.174;5.456;2023-07-08T14:09:57;5.10;;;4.25;;
42110;SDS011;27766;52.174;5.456;2023-07-08T14:12:25;7.05;;;5.03;;
42110;SDS011;27766;52.174;5.456;2023-07-08T14:14:52;5.68;;;4.38;;
42110;SDS011;27766;52.174;5.456;2023-07-08T14:17:21;7.32;;;4.95;;
42110;SDS011;27766;52.174;5.456;2023-07-08T14:19:51;5.82;;;4.57;;
42110;SDS011;27766;52.174;5.456;2023-07-08T14:22:23;10.10;;;4.95;;
42110;SDS011;27766;52.174;5.456;2023-07-08T14:24:52;5.93;;;4.43;;
42110;SDS011;27766;52.174;5.456;2023-07-08T14:27:20;8.95;;;5.43;;
42110;SDS011;27766;52.174;5.456;2023-07-08T14:29:49;4.65;;;4.15;;
42110;SDS011;27766;52.174;5.456;2023-07-08T14:34:48;5.05;;;3.63;;
42110;SDS011;27766;52.174;5.456;2023-07-08T14:37:19;5.28;;;4.05;;
42110;SDS011;27766;52.174;5.456;2023-07-08T14:39:47;8.05;;;4.50;;
42110;SDS011;27766;52.174;5.456;2023-07-08T14:42:16;5.78;;;4.47;;
42110;SDS011;27766;52.174;5.456;2023-07-08T14:44:46;6.65;;;4.28;;
42110;SDS011;27766;52.174;5.456;2023-07-08T14:47:17;5.35;;;4.00;;
42110;SDS011;27766;52.174;5.456;2023-07-08T14:49:46;5.93;;;4.03;;
42110;SDS011;27766;52.174;5.456;2023-07-08T14:52:13;5.70;;;4.22;;
42110;SDS011;27766;52.174;5.456;2023-07-08T14:54:41;4.97;;;4.07;;
42110;SDS011;27766;52.174;5.456;2023-07-08T14:57:10;5.75;;;4.13;;
42110;SDS011;27766;52.174;5.456;2023-07-08T14:59:43;4.75;;;3.92;;
42110;SDS011;27766;52.174;5.456;2023-07-08T15:02:18;5.80;;;3.70;;
42110;SDS011;27766;52.174;5.456;2023-07-08T15:04:47;5.80;;;3.83;;
42110;SDS011;27766;52.174;5.456;2023-07-08T15:07:15;5.40;;;4.07;;
42110;SDS011;27766;52.174;5.456;2023-07-08T15:09:43;6.53;;;4.72;;
42110;SDS011;27766;52.174;5.456;2023-07-08T15:12:11;4.50;;;3.67;;
42110;SDS011;27766;52.174;5.456;2023-07-08T15:14:39;6.15;;;4.28;;
42110;SDS011;27766;52.174;5.456;2023-07-08T15:17:12;7.55;;;5.00;;
42110;SDS011;27766;52.174;5.456;2023-07-08T15:19:45;6.53;;;3.83;;
42110;SDS011;27766;52.174;5.456;2023-07-08T15:22:13;7.18;;;4.78;;
42110;SDS011;27766;52.174;5.456;2023-07-08T15:24:40;5.25;;;4.47;;
42110;SDS011;27766;52.174;5.456;2023-07-08T15:27:09;6.00;;;4.40;;
42110;SDS011;27766;52.174;5.456;2023-07-08T15:29:38;8.30;;;4.53;;
42110;SDS011;27766;52.174;5.456;2023-07-08T15:32:12;5.68;;;4.10;;
42110;SDS011;27766;52.174;5.456;2023-07-08T15:35:08;4.93;;;3.80;;
42110;SDS011;27766;52.174;5.456;2023-07-08T15:37:42;6.70;;;4.38;;
42110;SDS011;27766;52.174;5.456;2023-07-08T15:40:14;8.68;;;4.55;;
42110;SDS011;27766;52.174;5.456;2023-07-08T15:42:44;7.60;;;4.53;;
42110;SDS011;27766;52.174;5.456;2023-07-08T15:45:28;5.55;;;4.22;;
42110;SDS011;27766;52.174;5.456;2023-07-08T15:47:57;9.23;;;4.85;;
42110;SDS011;27766;52.174;5.456;2023-07-08T15:50:26;4.55;;;3.95;;
42110;SDS011;27766;52.174;5.456;2023-07-08T15:52:54;5.03;;;4.25;;
42110;SDS011;27766;52.174;5.456;2023-07-08T15:55:25;4.72;;;4.20;;
42110;SDS011;27766;52.174;5.456;2023-07-08T15:58:00;6.30;;;4.63;;
42110;SDS011;27766;52.174;5.456;2023-07-08T16:00:39;5.22;;;4.70;;
42110;SDS011;27766;52.174;5.456;2023-07-08T16:03:20;7.10;;;4.65;;
42110;SDS011;27766;52.174;5.456;2023-07-08T16:05:51;8.13;;;4.78;;
42110;SDS011;27766;52.174;5.456;2023-07-08T16:08:19;5.43;;;4.53;;
42110;SDS011;27766;52.174;5.456;2023-07-08T16:11:10;7.10;;;5.07;;
42110;SDS011;27766;52.174;5.456;2023-07-08T16:13:46;10.32;;;4.82;;
42110;SDS011;27766;52.174;5.456;2023-07-08T16:16:15;6.55;;;4.88;;
42110;SDS011;27766;52.174;5.456;2023-07-08T16:18:42;6.00;;;4.53;;
42110;SDS011;27766;52.174;5.456;2023-07-08T16:21:10;5.97;;;4.78;;